Terminal Aerodrome Forecast
Issued by NWS

Home | Current Version | Previous Version | Text Only | Print | Product List | Glossary Off
Versions: 1 2 3 4 5 6 7 8 9 10 11 12 13 14 15 16 17 18 19 20 21 22 23

000
FTUS43 KUNR 231734
TAFGCC
TAF
KGCC 231734Z 2318/2418 04004KT P6SM OVC007
     FM232200 01006KT P6SM -RA OVC006
     FM240300 35007KT 5SM -RA BR OVC005
     FM241300 36012KT P6SM -RA OVC008=

USA.gov is the U.S. government's official web portal to all federal, state and local government web resources and services.